sensor_id;sensor_type;location;lat;lon;timestamp;P1;durP1;ratioP1;P2;durP2;ratioP2
11887;SDS011;6003;42.756;23.130;2022-07-06T00:00:49;9.07;;;7.63;;
11887;SDS011;6003;42.756;23.130;2022-07-06T00:03:16;8.43;;;7.47;;
11887;SDS011;6003;42.756;23.130;2022-07-06T00:05:43;7.73;;;7.03;;
11887;SDS011;6003;42.756;23.130;2022-07-06T00:08:10;8.10;;;6.87;;
11887;SDS011;6003;42.756;23.130;2022-07-06T00:10:37;7.50;;;6.80;;
11887;SDS011;6003;42.756;23.130;2022-07-06T00:13:03;11.50;;;7.27;;
11887;SDS011;6003;42.756;23.130;2022-07-06T00:15:32;10.37;;;7.83;;
11887;SDS011;6003;42.756;23.130;2022-07-06T00:17:59;10.07;;;7.67;;
11887;SDS011;6003;42.756;23.130;2022-07-06T00:20:25;8.90;;;7.43;;
11887;SDS011;6003;42.756;23.130;2022-07-06T00:22:53;10.17;;;8.10;;
11887;SDS011;6003;42.756;23.130;2022-07-06T00:25:20;10.93;;;9.37;;
11887;SDS011;6003;42.756;23.130;2022-07-06T00:27:47;8.70;;;7.80;;
11887;SDS011;6003;42.756;23.130;2022-07-06T00:30:14;11.03;;;8.13;;
11887;SDS011;6003;42.756;23.130;2022-07-06T00:32:42;9.30;;;8.00;;
11887;SDS011;6003;42.756;23.130;2022-07-06T00:35:09;10.37;;;8.70;;
11887;SDS011;6003;42.756;23.130;2022-07-06T00:37:36;12.53;;;9.00;;
11887;SDS011;6003;42.756;23.130;2022-07-06T00:40:04;12.57;;;9.03;;
11887;SDS011;6003;42.756;23.130;2022-07-06T00:42:38;9.17;;;8.23;;
11887;SDS011;6003;42.756;23.130;2022-07-06T00:45:06;9.40;;;8.20;;
11887;SDS011;6003;42.756;23.130;2022-07-06T00:47:33;11.00;;;8.37;;
11887;SDS011;6003;42.756;23.130;2022-07-06T00:50:02;10.17;;;8.63;;
11887;SDS011;6003;42.756;23.130;2022-07-06T00:52:46;8.67;;;7.63;;
11887;SDS011;6003;42.756;23.130;2022-07-06T00:55:15;9.70;;;8.70;;
11887;SDS011;6003;42.756;23.130;2022-07-06T00:57:43;9.20;;;7.97;;
11887;SDS011;6003;42.756;23.130;2022-07-06T01:00:11;9.50;;;8.50;;
11887;SDS011;6003;42.756;23.130;2022-07-06T01:02:40;9.90;;;7.70;;
11887;SDS011;6003;42.756;23.130;2022-07-06T01:05:09;9.43;;;8.27;;
11887;SDS011;6003;42.756;23.130;2022-07-06T01:07:39;12.13;;;8.17;;
11887;SDS011;6003;42.756;23.130;2022-07-06T01:10:07;11.90;;;9.30;;
11887;SDS011;6003;42.756;23.130;2022-07-06T01:12:35;10.27;;;8.27;;
11887;SDS011;6003;42.756;23.130;2022-07-06T01:15:04;9.43;;;8.43;;
11887;SDS011;6003;42.756;23.130;2022-07-06T01:17:32;10.57;;;8.47;;
11887;SDS011;6003;42.756;23.130;2022-07-06T01:20:07;10.27;;;9.23;;
11887;SDS011;6003;42.756;23.130;2022-07-06T01:22:35;9.77;;;8.73;;
11887;SDS011;6003;42.756;23.130;2022-07-06T01:25:02;10.50;;;9.40;;
11887;SDS011;6003;42.756;23.130;2022-07-06T01:27:30;13.30;;;9.90;;
11887;SDS011;6003;42.756;23.130;2022-07-06T01:29:57;11.07;;;9.23;;
11887;SDS011;6003;42.756;23.130;2022-07-06T01:32:24;10.37;;;9.27;;
11887;SDS011;6003;42.756;23.130;2022-07-06T01:34:51;9.87;;;8.87;;
11887;SDS011;6003;42.756;23.130;2022-07-06T01:37:20;11.07;;;9.43;;
11887;SDS011;6003;42.756;23.130;2022-07-06T01:39:47;12.37;;;9.97;;
11887;SDS011;6003;42.756;23.130;2022-07-06T01:42:14;10.60;;;8.90;;
11887;SDS011;6003;42.756;23.130;2022-07-06T01:44:42;10.23;;;8.93;;
11887;SDS011;6003;42.756;23.130;2022-07-06T01:47:09;9.57;;;8.57;;
11887;SDS011;6003;42.756;23.130;2022-07-06T01:49:36;9.27;;;8.03;;
11887;SDS011;6003;42.756;23.130;2022-07-06T01:52:03;9.10;;;8.20;;
11887;SDS011;6003;42.756;23.130;2022-07-06T01:54:32;12.77;;;8.77;;
11887;SDS011;6003;42.756;23.130;2022-07-06T01:56:59;11.27;;;8.30;;
11887;SDS011;6003;42.756;23.130;2022-07-06T01:59:26;10.00;;;8.73;;
11887;SDS011;6003;42.756;23.130;2022-07-06T02:01:53;9.53;;;8.57;;
11887;SDS011;6003;42.756;23.130;2022-07-06T02:04:20;11.53;;;9.40;;
11887;SDS011;6003;42.756;23.130;2022-07-06T02:06:48;11.30;;;8.60;;
11887;SDS011;6003;42.756;23.130;2022-07-06T02:09:15;10.00;;;8.73;;
11887;SDS011;6003;42.756;23.130;2022-07-06T02:11:43;10.93;;;9.03;;
11887;SDS011;6003;42.756;23.130;2022-07-06T02:14:10;13.50;;;8.33;;
11887;SDS011;6003;42.756;23.130;2022-07-06T02:16:37;15.23;;;9.00;;
11887;SDS011;6003;42.756;23.130;2022-07-06T02:19:04;9.63;;;8.67;;
11887;SDS011;6003;42.756;23.130;2022-07-06T02:21:31;9.37;;;8.27;;
11887;SDS011;6003;42.756;23.130;2022-07-06T02:23:58;9.73;;;8.73;;
11887;SDS011;6003;42.756;23.130;2022-07-06T02:26:26;9.87;;;8.40;;
11887;SDS011;6003;42.756;23.130;2022-07-06T02:28:54;9.93;;;8.53;;
11887;SDS011;6003;42.756;23.130;2022-07-06T02:31:24;10.47;;;8.63;;
11887;SDS011;6003;42.756;23.130;2022-07-06T02:33:51;10.03;;;7.97;;
11887;SDS011;6003;42.756;23.130;2022-07-06T02:36:18;9.03;;;7.87;;
11887;SDS011;6003;42.756;23.130;2022-07-06T02:38:45;9.43;;;8.47;;
11887;SDS011;6003;42.756;23.130;2022-07-06T02:41:12;9.43;;;7.67;;
11887;SDS011;6003;42.756;23.130;2022-07-06T02:43:39;10.27;;;8.90;;
11887;SDS011;6003;42.756;23.130;2022-07-06T02:46:07;9.73;;;8.73;;
11887;SDS011;6003;42.756;23.130;2022-07-06T02:48:34;9.03;;;7.80;;
11887;SDS011;6003;42.756;23.130;2022-07-06T02:51:02;9.63;;;7.90;;
11887;SDS011;6003;42.756;23.130;2022-07-06T02:53:29;8.80;;;7.90;;
11887;SDS011;6003;42.756;23.130;2022-07-06T02:55:56;7.73;;;7.03;;
11887;SDS011;6003;42.756;23.130;2022-07-06T02:58:23;9.00;;;7.27;;
11887;SDS011;6003;42.756;23.130;2022-07-06T03:00:50;9.57;;;6.93;;
11887;SDS011;6003;42.756;23.130;2022-07-06T03:03:18;8.00;;;6.97;;
11887;SDS011;6003;42.756;23.130;2022-07-06T03:05:45;8.70;;;7.90;;
11887;SDS011;6003;42.756;23.130;2022-07-06T03:08:13;8.63;;;7.33;;
11887;SDS011;6003;42.756;23.130;2022-07-06T03:14:02;10.60;;;8.20;;
11887;SDS011;6003;42.756;23.130;2022-07-06T03:16:29;9.47;;;8.00;;
11887;SDS011;6003;42.756;23.130;2022-07-06T03:18:58;8.57;;;7.67;;
11887;SDS011;6003;42.756;23.130;2022-07-06T03:21:25;8.83;;;7.77;;
11887;SDS011;6003;42.756;23.130;2022-07-06T03:23:52;8.07;;;7.23;;
11887;SDS011;6003;42.756;23.130;2022-07-06T03:26:19;8.23;;;6.70;;
11887;SDS011;6003;42.756;23.130;2022-07-06T03:28:46;8.20;;;6.80;;
11887;SDS011;6003;42.756;23.130;2022-07-06T03:31:13;8.10;;;7.30;;
11887;SDS011;6003;42.756;23.130;2022-07-06T03:33:40;7.70;;;6.90;;
11887;SDS011;6003;42.756;23.130;2022-07-06T03:36:08;6.27;;;5.67;;
11887;SDS011;6003;42.756;23.130;2022-07-06T03:38:36;10.43;;;6.13;;
11887;SDS011;6003;42.756;23.130;2022-07-06T03:41:03;6.10;;;5.27;;
11887;SDS011;6003;42.756;23.130;2022-07-06T03:43:30;5.47;;;4.97;;
11887;SDS011;6003;42.756;23.130;2022-07-06T03:45:57;5.23;;;4.50;;
11887;SDS011;6003;42.756;23.130;2022-07-06T03:48:25;5.10;;;4.57;;
11887;SDS011;6003;42.756;23.130;2022-07-06T03:50:52;4.60;;;4.17;;
11887;SDS011;6003;42.756;23.130;2022-07-06T03:53:20;5.00;;;4.60;;
11887;SDS011;6003;42.756;23.130;2022-07-06T03:55:47;7.97;;;4.60;;
11887;SDS011;6003;42.756;23.130;2022-07-06T03:58:34;7.20;;;5.10;;
11887;SDS011;6003;42.756;23.130;2022-07-06T04:01:01;4.47;;;4.03;;
11887;SDS011;6003;42.756;23.130;2022-07-06T04:03:28;5.70;;;4.57;;
11887;SDS011;6003;42.756;23.130;2022-07-06T04:05:55;4.73;;;4.03;;
11887;SDS011;6003;42.756;23.130;2022-07-06T04:08:23;6.37;;;4.50;;
11887;SDS011;6003;42.756;23.130;2022-07-06T04:10:50;5.10;;;4.60;;
11887;SDS011;6003;42.756;23.130;2022-07-06T04:13:17;4.87;;;4.47;;
11887;SDS011;6003;42.756;23.130;2022-07-06T04:15:44;8.07;;;4.73;;
11887;SDS011;6003;42.756;23.130;2022-07-06T04:18:11;5.70;;;5.20;;
11887;SDS011;6003;42.756;23.130;2022-07-06T04:20:41;6.53;;;5.93;;
11887;SDS011;6003;42.756;23.130;2022-07-06T04:23:08;8.03;;;6.67;;
11887;SDS011;6003;42.756;23.130;2022-07-06T04:25:36;10.67;;;7.17;;
11887;SDS011;6003;42.756;23.130;2022-07-06T04:28:03;9.40;;;7.20;;
11887;SDS011;6003;42.756;23.130;2022-07-06T04:30:31;9.67;;;8.27;;
11887;SDS011;6003;42.756;23.130;2022-07-06T04:32:58;10.43;;;9.20;;
11887;SDS011;6003;42.756;23.130;2022-07-06T04:35:25;12.63;;;9.50;;
11887;SDS011;6003;42.756;23.130;2022-07-06T04:37:51;12.53;;;10.10;;
11887;SDS011;6003;42.756;23.130;2022-07-06T04:40:18;16.57;;;11.23;;
11887;SDS011;6003;42.756;23.130;2022-07-06T04:42:46;12.27;;;10.03;;
11887;SDS011;6003;42.756;23.130;2022-07-06T04:45:13;16.87;;;11.30;;
11887;SDS011;6003;42.756;23.130;2022-07-06T04:47:40;13.73;;;10.60;;
11887;SDS011;6003;42.756;23.130;2022-07-06T04:50:09;14.10;;;10.00;;
11887;SDS011;6003;42.756;23.130;2022-07-06T04:52:36;13.13;;;9.63;;
11887;SDS011;6003;42.756;23.130;2022-07-06T04:55:03;11.27;;;8.93;;
11887;SDS011;6003;42.756;23.130;2022-07-06T04:57:31;9.37;;;6.90;;
11887;SDS011;6003;42.756;23.130;2022-07-06T05:00:00;11.80;;;8.73;;
11887;SDS011;6003;42.756;23.130;2022-07-06T05:02:27;9.40;;;8.03;;
11887;SDS011;6003;42.756;23.130;2022-07-06T05:04:54;11.00;;;8.40;;
11887;SDS011;6003;42.756;23.130;2022-07-06T05:07:21;9.00;;;8.10;;
11887;SDS011;6003;42.756;23.130;2022-07-06T05:09:48;11.80;;;7.80;;
11887;SDS011;6003;42.756;23.130;2022-07-06T05:12:14;11.33;;;7.07;;
11887;SDS011;6003;42.756;23.130;2022-07-06T05:14:41;7.87;;;7.07;;
11887;SDS011;6003;42.756;23.130;2022-07-06T05:17:10;8.43;;;7.33;;
11887;SDS011;6003;42.756;23.130;2022-07-06T05:19:36;7.43;;;6.73;;
11887;SDS011;6003;42.756;23.130;2022-07-06T05:22:03;10.97;;;7.03;;
11887;SDS011;6003;42.756;23.130;2022-07-06T05:24:30;7.40;;;6.70;;
11887;SDS011;6003;42.756;23.130;2022-07-06T05:26:57;6.93;;;6.03;;
11887;SDS011;6003;42.756;23.130;2022-07-06T05:29:24;6.67;;;6.07;;
11887;SDS011;6003;42.756;23.130;2022-07-06T05:31:51;6.93;;;6.23;;
11887;SDS011;6003;42.756;23.130;2022-07-06T05:34:19;6.60;;;5.85;;
11887;SDS011;6003;42.756;23.130;2022-07-06T05:36:46;6.53;;;5.75;;
11887;SDS011;6003;42.756;23.130;2022-07-06T05:39:13;8.25;;;6.63;;
11887;SDS011;6003;42.756;23.130;2022-07-06T05:41:44;6.05;;;5.45;;
11887;SDS011;6003;42.756;23.130;2022-07-06T05:44:11;6.13;;;5.53;;
11887;SDS011;6003;42.756;23.130;2022-07-06T05:46:38;5.80;;;5.30;;
11887;SDS011;6003;42.756;23.130;2022-07-06T05:49:05;5.90;;;5.40;;
11887;SDS011;6003;42.756;23.130;2022-07-06T05:51:50;6.33;;;5.73;;
11887;SDS011;6003;42.756;23.130;2022-07-06T05:54:17;5.77;;;5.27;;
11887;SDS011;6003;42.756;23.130;2022-07-06T05:56:44;6.33;;;5.73;;
11887;SDS011;6003;42.756;23.130;2022-07-06T05:59:11;6.83;;;6.23;;
11887;SDS011;6003;42.756;23.130;2022-07-06T06:01:38;7.47;;;6.57;;
11887;SDS011;6003;42.756;23.130;2022-07-06T06:04:05;7.70;;;6.90;;
11887;SDS011;6003;42.756;23.130;2022-07-06T06:06:32;8.10;;;7.40;;
11887;SDS011;6003;42.756;23.130;2022-07-06T06:09:00;8.27;;;7.47;;
11887;SDS011;6003;42.756;23.130;2022-07-06T06:11:27;8.83;;;7.83;;
11887;SDS011;6003;42.756;23.130;2022-07-06T06:13:54;8.57;;;7.77;;
11887;SDS011;6003;42.756;23.130;2022-07-06T06:16:21;9.27;;;8.13;;
11887;SDS011;6003;42.756;23.130;2022-07-06T06:18:48;8.53;;;7.70;;
11887;SDS011;6003;42.756;23.130;2022-07-06T06:24:07;9.30;;;8.23;;
11887;SDS011;6003;42.756;23.130;2022-07-06T06:26:34;10.33;;;8.73;;
11887;SDS011;6003;42.756;23.130;2022-07-06T06:29:01;9.30;;;8.23;;
11887;SDS011;6003;42.756;23.130;2022-07-06T06:31:28;9.77;;;8.77;;
11887;SDS011;6003;42.756;23.130;2022-07-06T06:33:55;9.77;;;8.77;;
11887;SDS011;6003;42.756;23.130;2022-07-06T06:36:21;11.03;;;9.93;;
11887;SDS011;6003;42.756;23.130;2022-07-06T06:38:48;12.20;;;9.33;;
11887;SDS011;6003;42.756;23.130;2022-07-06T06:41:16;9.57;;;8.67;;
11887;SDS011;6003;42.756;23.130;2022-07-06T06:43:45;10.30;;;9.13;;
11887;SDS011;6003;42.756;23.130;2022-07-06T06:46:12;9.13;;;8.20;;
11887;SDS011;6003;42.756;23.130;2022-07-06T06:48:39;10.43;;;9.43;;
11887;SDS011;6003;42.756;23.130;2022-07-06T06:51:06;11.57;;;9.93;;
11887;SDS011;6003;42.756;23.130;2022-07-06T06:53:34;12.53;;;9.53;;
11887;SDS011;6003;42.756;23.130;2022-07-06T06:56:01;10.40;;;9.40;;
11887;SDS011;6003;42.756;23.130;2022-07-06T06:58:29;12.17;;;9.53;;
11887;SDS011;6003;42.756;23.130;2022-07-06T07:00:56;10.53;;;9.50;;
11887;SDS011;6003;42.756;23.130;2022-07-06T07:03:23;9.90;;;9.00;;
11887;SDS011;6003;42.756;23.130;2022-07-06T07:05:50;11.03;;;9.87;;
11887;SDS011;6003;42.756;23.130;2022-07-06T07:08:17;11.30;;;10.03;;
11887;SDS011;6003;42.756;23.130;2022-07-06T07:10:44;11.03;;;9.63;;
11887;SDS011;6003;42.756;23.130;2022-07-06T07:13:11;10.73;;;9.67;;
11887;SDS011;6003;42.756;23.130;2022-07-06T07:15:40;10.80;;;9.67;;
11887;SDS011;6003;42.756;23.130;2022-07-06T07:18:07;13.30;;;10.17;;
11887;SDS011;6003;42.756;23.130;2022-07-06T07:20:34;10.93;;;9.73;;
11887;SDS011;6003;42.756;23.130;2022-07-06T07:23:01;11.77;;;10.57;;
11887;SDS011;6003;42.756;23.130;2022-07-06T07:25:28;11.33;;;9.97;;
11887;SDS011;6003;42.756;23.130;2022-07-06T07:27:55;11.43;;;9.90;;
11887;SDS011;6003;42.756;23.130;2022-07-06T07:30:22;11.30;;;10.20;;
11887;SDS011;6003;42.756;23.130;2022-07-06T07:32:51;14.13;;;10.57;;
11887;SDS011;6003;42.756;23.130;2022-07-06T07:35:18;11.23;;;9.77;;
11887;SDS011;6003;42.756;23.130;2022-07-06T07:37:45;12.40;;;9.73;;
11887;SDS011;6003;42.756;23.130;2022-07-06T07:40:12;12.60;;;10.60;;
11887;SDS011;6003;42.756;23.130;2022-07-06T07:42:39;10.80;;;9.43;;
11887;SDS011;6003;42.756;23.130;2022-07-06T07:45:06;11.43;;;9.97;;
11887;SDS011;6003;42.756;23.130;2022-07-06T07:47:33;11.73;;;10.53;;
11887;SDS011;6003;42.756;23.130;2022-07-06T07:50:02;12.70;;;10.67;;
11887;SDS011;6003;42.756;23.130;2022-07-06T07:52:30;10.53;;;9.20;;
11887;SDS011;6003;42.756;23.130;2022-07-06T07:54:57;13.03;;;10.60;;
11887;SDS011;6003;42.756;23.130;2022-07-06T07:57:24;11.73;;;9.97;;
11887;SDS011;6003;42.756;23.130;2022-07-06T07:59:51;11.33;;;10.03;;
11887;SDS011;6003;42.756;23.130;2022-07-06T08:02:18;11.03;;;9.93;;
11887;SDS011;6003;42.756;23.130;2022-07-06T08:04:45;10.53;;;9.43;;
11887;SDS011;6003;42.756;23.130;2022-07-06T08:07:13;12.97;;;10.67;;
11887;SDS011;6003;42.756;23.130;2022-07-06T08:09:40;10.20;;;9.20;;
11887;SDS011;6003;42.756;23.130;2022-07-06T08:12:07;11.27;;;10.17;;
11887;SDS011;6003;42.756;23.130;2022-07-06T08:14:34;11.67;;;9.67;;
11887;SDS011;6003;42.756;23.130;2022-07-06T08:17:02;11.27;;;10.17;;
11887;SDS011;6003;42.756;23.130;2022-07-06T08:19:29;10.60;;;9.60;;
11887;SDS011;6003;42.756;23.130;2022-07-06T08:21:57;11.50;;;10.27;;
11887;SDS011;6003;42.756;23.130;2022-07-06T08:24:25;9.97;;;8.93;;
11887;SDS011;6003;42.756;23.130;2022-07-06T08:26:52;9.70;;;8.70;;
11887;SDS011;6003;42.756;23.130;2022-07-06T08:29:21;9.40;;;8.50;;
11887;SDS011;6003;42.756;23.130;2022-07-06T08:31:48;9.40;;;8.50;;
11887;SDS011;6003;42.756;23.130;2022-07-06T08:34:15;9.17;;;8.27;;
11887;SDS011;6003;42.756;23.130;2022-07-06T08:36:42;10.47;;;9.30;;
11887;SDS011;6003;42.756;23.130;2022-07-06T08:39:09;11.20;;;8.77;;
11887;SDS011;6003;42.756;23.130;2022-07-06T08:41:38;9.97;;;8.10;;
11887;SDS011;6003;42.756;23.130;2022-07-06T08:44:08;10.40;;;9.50;;
11887;SDS011;6003;42.756;23.130;2022-07-06T08:46:37;9.67;;;8.77;;
11887;SDS011;6003;42.756;23.130;2022-07-06T08:49:05;9.03;;;8.13;;
11887;SDS011;6003;42.756;23.130;2022-07-06T08:51:33;10.67;;;9.67;;
11887;SDS011;6003;42.756;23.130;2022-07-06T08:54:01;9.80;;;8.80;;
11887;SDS011;6003;42.756;23.130;2022-07-06T08:56:29;9.17;;;8.33;;
11887;SDS011;6003;42.756;23.130;2022-07-06T08:58:57;9.87;;;8.87;;
11887;SDS011;6003;42.756;23.130;2022-07-06T09:01:27;10.40;;;9.37;;
11887;SDS011;6003;42.756;23.130;2022-07-06T09:03:55;11.20;;;10.10;;
11887;SDS011;6003;42.756;23.130;2022-07-06T09:06:24;12.30;;;10.37;;
11887;SDS011;6003;42.756;23.130;2022-07-06T09:08:52;12.70;;;11.37;;
11887;SDS011;6003;42.756;23.130;2022-07-06T09:11:20;11.33;;;10.20;;
11887;SDS011;6003;42.756;23.130;2022-07-06T09:13:48;11.17;;;9.53;;
11887;SDS011;6003;42.756;23.130;2022-07-06T09:16:24;10.50;;;8.93;;
11887;SDS011;6003;42.756;23.130;2022-07-06T09:18:52;12.37;;;10.53;;
11887;SDS011;6003;42.756;23.130;2022-07-06T09:21:26;13.13;;;11.17;;
11887;SDS011;6003;42.756;23.130;2022-07-06T09:23:55;11.10;;;9.93;;
11887;SDS011;6003;42.756;23.130;2022-07-06T09:26:23;11.20;;;10.00;;
11887;SDS011;6003;42.756;23.130;2022-07-06T09:28:50;10.80;;;9.80;;
11887;SDS011;6003;42.756;23.130;2022-07-06T09:31:19;12.20;;;11.00;;
11887;SDS011;6003;42.756;23.130;2022-07-06T09:33:53;11.77;;;10.57;;
11887;SDS011;6003;42.756;23.130;2022-07-06T09:36:40;10.97;;;9.87;;
11887;SDS011;6003;42.756;23.130;2022-07-06T09:39:18;11.67;;;10.47;;
11887;SDS011;6003;42.756;23.130;2022-07-06T09:41:47;11.23;;;9.43;;
11887;SDS011;6003;42.756;23.130;2022-07-06T09:44:18;11.07;;;9.70;;
11887;SDS011;6003;42.756;23.130;2022-07-06T09:46:48;10.93;;;9.83;;
11887;SDS011;6003;42.756;23.130;2022-07-06T09:49:19;11.23;;;9.80;;
11887;SDS011;6003;42.756;23.130;2022-07-06T09:51:46;12.27;;;10.07;;
11887;SDS011;6003;42.756;23.130;2022-07-06T09:54:14;12.00;;;10.80;;
11887;SDS011;6003;42.756;23.130;2022-07-06T09:56:43;12.10;;;10.90;;
11887;SDS011;6003;42.756;23.130;2022-07-06T09:59:14;10.73;;;9.60;;
11887;SDS011;6003;42.756;23.130;2022-07-06T10:01:42;12.23;;;10.97;;
11887;SDS011;6003;42.756;23.130;2022-07-06T10:04:12;9.87;;;8.83;;
11887;SDS011;6003;42.756;23.130;2022-07-06T10:06:40;10.87;;;8.87;;
11887;SDS011;6003;42.756;23.130;2022-07-06T10:09:09;10.00;;;8.97;;
11887;SDS011;6003;42.756;23.130;2022-07-06T10:11:38;11.17;;;9.70;;
11887;SDS011;6003;42.756;23.130;2022-07-06T10:14:06;11.70;;;10.50;;
11887;SDS011;6003;42.756;23.130;2022-07-06T10:16:35;12.07;;;10.80;;
11887;SDS011;6003;42.756;23.130;2022-07-06T10:19:04;10.97;;;10.00;;
11887;SDS011;6003;42.756;23.130;2022-07-06T10:21:34;11.63;;;10.53;;
11887;SDS011;6003;42.756;23.130;2022-07-06T10:24:03;12.57;;;11.37;;
11887;SDS011;6003;42.756;23.130;2022-07-06T10:26:31;11.73;;;10.53;;
11887;SDS011;6003;42.756;23.130;2022-07-06T10:29:00;12.70;;;11.50;;
11887;SDS011;6003;42.756;23.130;2022-07-06T10:31:27;12.47;;;11.27;;
11887;SDS011;6003;42.756;23.130;2022-07-06T10:33:56;12.20;;;11.00;;
11887;SDS011;6003;42.756;23.130;2022-07-06T10:36:24;12.27;;;11.17;;
11887;SDS011;6003;42.756;23.130;2022-07-06T10:38:53;13.13;;;11.90;;
11887;SDS011;6003;42.756;23.130;2022-07-06T10:41:29;11.23;;;10.23;;
11887;SDS011;6003;42.756;23.130;2022-07-06T10:43:57;12.27;;;11.15;;
11887;SDS011;6003;42.756;23.130;2022-07-06T10:46:27;11.30;;;9.73;;
11887;SDS011;6003;42.756;23.130;2022-07-06T10:48:54;12.83;;;11.00;;
11887;SDS011;6003;42.756;23.130;2022-07-06T10:51:23;11.90;;;10.70;;
11887;SDS011;6003;42.756;23.130;2022-07-06T10:53:56;10.23;;;9.20;;
11887;SDS011;6003;42.756;23.130;2022-07-06T10:56:31;12.27;;;10.10;;
11887;SDS011;6003;42.756;23.130;2022-07-06T10:59:01;12.13;;;10.93;;
11887;SDS011;6003;42.756;23.130;2022-07-06T11:01:29;12.37;;;11.20;;
11887;SDS011;6003;42.756;23.130;2022-07-06T11:04:05;12.33;;;11.20;;
11887;SDS011;6003;42.756;23.130;2022-07-06T11:06:34;14.67;;;11.20;;
11887;SDS011;6003;42.756;23.130;2022-07-06T11:09:04;11.50;;;10.50;;
11887;SDS011;6003;42.756;23.130;2022-07-06T11:11:39;12.07;;;10.93;;
11887;SDS011;6003;42.756;23.130;2022-07-06T11:14:09;11.57;;;10.47;;
11887;SDS011;6003;42.756;23.130;2022-07-06T11:16:39;11.83;;;10.77;;
11887;SDS011;6003;42.756;23.130;2022-07-06T11:19:26;12.67;;;11.30;;
11887;SDS011;6003;42.756;23.130;2022-07-06T11:21:54;11.97;;;10.20;;
11887;SDS011;6003;42.756;23.130;2022-07-06T11:24:25;12.83;;;11.57;;
11887;SDS011;6003;42.756;23.130;2022-07-06T11:26:53;12.00;;;11.00;;
11887;SDS011;6003;42.756;23.130;2022-07-06T11:29:21;11.13;;;10.03;;
11887;SDS011;6003;42.756;23.130;2022-07-06T11:31:49;11.80;;;10.70;;
11887;SDS011;6003;42.756;23.130;2022-07-06T11:34:18;11.67;;;10.63;;
11887;SDS011;6003;42.756;23.130;2022-07-06T11:36:46;10.70;;;9.80;;
11887;SDS011;6003;42.756;23.130;2022-07-06T11:39:14;10.45;;;9.50;;
11887;SDS011;6003;42.756;23.130;2022-07-06T11:44:43;9.70;;;8.90;;
11887;SDS011;6003;42.756;23.130;2022-07-06T11:47:12;8.38;;;7.68;;
11887;SDS011;6003;42.756;23.130;2022-07-06T11:49:40;9.20;;;8.30;;
11887;SDS011;6003;42.756;23.130;2022-07-06T11:52:08;8.05;;;7.43;;
11887;SDS011;6003;42.756;23.130;2022-07-06T11:54:35;9.07;;;8.27;;
11887;SDS011;6003;42.756;23.130;2022-07-06T11:57:02;7.87;;;7.27;;
11887;SDS011;6003;42.756;23.130;2022-07-06T11:59:32;8.23;;;7.63;;
11887;SDS011;6003;42.756;23.130;2022-07-06T12:02:02;8.60;;;7.90;;
11887;SDS011;6003;42.756;23.130;2022-07-06T12:04:30;8.07;;;7.10;;
11887;SDS011;6003;42.756;23.130;2022-07-06T12:06:59;7.70;;;7.10;;
11887;SDS011;6003;42.756;23.130;2022-07-06T12:09:29;7.43;;;6.82;;
11887;SDS011;6003;42.756;23.130;2022-07-06T12:11:57;8.10;;;7.50;;
11887;SDS011;6003;42.756;23.130;2022-07-06T12:14:27;8.60;;;7.90;;
11887;SDS011;6003;42.756;23.130;2022-07-06T12:16:56;8.47;;;7.83;;
11887;SDS011;6003;42.756;23.130;2022-07-06T12:19:29;7.28;;;6.78;;
11887;SDS011;6003;42.756;23.130;2022-07-06T12:21:56;6.53;;;5.93;;
11887;SDS011;6003;42.756;23.130;2022-07-06T12:24:24;6.97;;;6.38;;
11887;SDS011;6003;42.756;23.130;2022-07-06T12:26:53;7.32;;;6.78;;
11887;SDS011;6003;42.756;23.130;2022-07-06T12:29:21;6.20;;;5.80;;
11887;SDS011;6003;42.756;23.130;2022-07-06T12:31:48;6.37;;;5.87;;
11887;SDS011;6003;42.756;23.130;2022-07-06T12:34:19;5.57;;;5.17;;
11887;SDS011;6003;42.756;23.130;2022-07-06T12:36:47;5.28;;;4.88;;
11887;SDS011;6003;42.756;23.130;2022-07-06T12:39:16;5.07;;;4.70;;
11887;SDS011;6003;42.756;23.130;2022-07-06T12:41:44;5.90;;;5.50;;
11887;SDS011;6003;42.756;23.130;2022-07-06T12:44:13;5.63;;;5.10;;
11887;SDS011;6003;42.756;23.130;2022-07-06T12:46:40;5.30;;;4.80;;
11887;SDS011;6003;42.756;23.130;2022-07-06T12:49:12;4.72;;;4.43;;
11887;SDS011;6003;42.756;23.130;2022-07-06T12:52:00;4.40;;;4.07;;
11887;SDS011;6003;42.756;23.130;2022-07-06T12:54:29;3.90;;;3.70;;
11887;SDS011;6003;42.756;23.130;2022-07-06T12:59:39;4.23;;;3.93;;
11887;SDS011;6003;42.756;23.130;2022-07-06T13:02:08;4.17;;;3.90;;
11887;SDS011;6003;42.756;23.130;2022-07-06T13:04:43;3.80;;;3.57;;
11887;SDS011;6003;42.756;23.130;2022-07-06T13:07:21;3.57;;;3.37;;
11887;SDS011;6003;42.756;23.130;2022-07-06T13:09:49;3.43;;;3.23;;
11887;SDS011;6003;42.756;23.130;2022-07-06T13:12:16;3.42;;;3.13;;
11887;SDS011;6003;42.756;23.130;2022-07-06T13:14:43;3.40;;;3.20;;
11887;SDS011;6003;42.756;23.130;2022-07-06T13:17:10;3.10;;;2.90;;
11887;SDS011;6003;42.756;23.130;2022-07-06T13:19:37;3.30;;;3.10;;
11887;SDS011;6003;42.756;23.130;2022-07-06T13:22:04;3.30;;;3.00;;
11887;SDS011;6003;42.756;23.130;2022-07-06T13:24:32;3.43;;;3.23;;
11887;SDS011;6003;42.756;23.130;2022-07-06T13:26:59;3.63;;;3.43;;
11887;SDS011;6003;42.756;23.130;2022-07-06T13:29:26;3.07;;;2.87;;
11887;SDS011;6003;42.756;23.130;2022-07-06T13:31:53;3.47;;;3.20;;
11887;SDS011;6003;42.756;23.130;2022-07-06T13:34:20;2.83;;;2.73;;
11887;SDS011;6003;42.756;23.130;2022-07-06T13:36:47;2.60;;;2.50;;
11887;SDS011;6003;42.756;23.130;2022-07-06T13:39:14;2.80;;;2.60;;
11887;SDS011;6003;42.756;23.130;2022-07-06T13:41:42;2.87;;;2.77;;
11887;SDS011;6003;42.756;23.130;2022-07-06T13:44:10;2.70;;;2.50;;
11887;SDS011;6003;42.756;23.130;2022-07-06T13:46:38;2.60;;;2.50;;
11887;SDS011;6003;42.756;23.130;2022-07-06T13:49:05;2.40;;;2.30;;
11887;SDS011;6003;42.756;23.130;2022-07-06T13:51:32;3.03;;;2.80;;
11887;SDS011;6003;42.756;23.130;2022-07-06T13:53:59;3.00;;;2.80;;
11887;SDS011;6003;42.756;23.130;2022-07-06T13:56:27;3.10;;;2.90;;
11887;SDS011;6003;42.756;23.130;2022-07-06T13:58:55;3.57;;;3.33;;
11887;SDS011;6003;42.756;23.130;2022-07-06T14:01:22;3.10;;;2.90;;
11887;SDS011;6003;42.756;23.130;2022-07-06T14:03:49;3.25;;;3.08;;
11887;SDS011;6003;42.756;23.130;2022-07-06T14:06:16;3.10;;;2.90;;
11887;SDS011;6003;42.756;23.130;2022-07-06T14:08:43;3.03;;;2.93;;
11887;SDS011;6003;42.756;23.130;2022-07-06T14:11:10;2.97;;;2.73;;
11887;SDS011;6003;42.756;23.130;2022-07-06T14:13:37;3.40;;;2.87;;
11887;SDS011;6003;42.756;23.130;2022-07-06T14:16:07;2.63;;;2.47;;
11887;SDS011;6003;42.756;23.130;2022-07-06T14:18:35;2.70;;;2.60;;
11887;SDS011;6003;42.756;23.130;2022-07-06T14:21:02;2.87;;;2.67;;
11887;SDS011;6003;42.756;23.130;2022-07-06T14:23:29;2.80;;;2.70;;
11887;SDS011;6003;42.756;23.130;2022-07-06T14:25:56;2.40;;;2.30;;
11887;SDS011;6003;42.756;23.130;2022-07-06T14:28:24;2.60;;;2.50;;
11887;SDS011;6003;42.756;23.130;2022-07-06T14:30:51;2.40;;;2.30;;
11887;SDS011;6003;42.756;23.130;2022-07-06T14:33:19;2.70;;;2.60;;
11887;SDS011;6003;42.756;23.130;2022-07-06T14:35:47;2.87;;;2.70;;
11887;SDS011;6003;42.756;23.130;2022-07-06T14:38:16;2.77;;;2.67;;
11887;SDS011;6003;42.756;23.130;2022-07-06T14:40:43;2.90;;;2.70;;
11887;SDS011;6003;42.756;23.130;2022-07-06T14:43:13;2.83;;;2.73;;
11887;SDS011;6003;42.756;23.130;2022-07-06T14:45:39;3.80;;;2.80;;
11887;SDS011;6003;42.756;23.130;2022-07-06T14:48:07;2.90;;;2.70;;
11887;SDS011;6003;42.756;23.130;2022-07-06T14:50:35;2.80;;;2.70;;
11887;SDS011;6003;42.756;23.130;2022-07-06T14:53:02;2.50;;;2.40;;
11887;SDS011;6003;42.756;23.130;2022-07-06T14:55:29;2.90;;;2.70;;